sensor_id;sensor_type;location;lat;lon;timestamp;pressure;altitude;pressure_sealevel;temperature;humidity
22862;BME280;11598;50.652;6.172;2023-02-28T00:08:35;97505.16;;;-2.88;81.31
22862;BME280;11598;50.652;6.172;2023-02-28T00:18:36;97500.13;;;-3.00;81.70
22862;BME280;11598;50.652;6.172;2023-02-28T00:28:36;97501.84;;;-3.05;82.44
22862;BME280;11598;50.652;6.172;2023-02-28T00:38:38;97495.09;;;-3.14;82.85
22862;BME280;11598;50.652;6.172;2023-02-28T00:48:39;97498.50;;;-3.21;83.43
22862;BME280;11598;50.652;6.172;2023-02-28T00:58:39;97501.06;;;-3.29;83.83
22862;BME280;11598;50.652;6.172;2023-02-28T01:08:40;97500.25;;;-3.38;84.14
22862;BME280;11598;50.652;6.172;2023-02-28T01:18:41;97507.88;;;-3.46;84.80
22862;BME280;11598;50.652;6.172;2023-02-28T01:28:42;97512.13;;;-3.57;85.50
22862;BME280;11598;50.652;6.172;2023-02-28T01:38:43;97502.00;;;-3.62;85.93
22862;BME280;11598;50.652;6.172;2023-02-28T01:48:51;97508.78;;;-3.69;86.67
22862;BME280;11598;50.652;6.172;2023-02-28T01:58:54;97502.84;;;-3.72;87.59
22862;BME280;11598;50.652;6.172;2023-02-28T02:08:55;97489.31;;;-3.76;87.66
22862;BME280;11598;50.652;6.172;2023-02-28T02:39:17;97474.94;;;-4.00;88.00
22862;BME280;11598;50.652;6.172;2023-02-28T02:49:24;97471.56;;;-4.10;88.62
22862;BME280;11598;50.652;6.172;2023-02-28T02:59:26;97475.81;;;-4.18;89.36
22862;BME280;11598;50.652;6.172;2023-02-28T03:09:28;97474.09;;;-4.25;89.49
22862;BME280;11598;50.652;6.172;2023-02-28T03:40:12;97467.31;;;-4.35;90.22
22862;BME280;11598;50.652;6.172;2023-02-28T04:00:33;97456.34;;;-4.43;90.30
22862;BME280;11598;50.652;6.172;2023-02-28T04:10:35;97457.19;;;-4.41;89.97
22862;BME280;11598;50.652;6.172;2023-02-28T04:20:36;97460.56;;;-4.39;90.05
22862;BME280;11598;50.652;6.172;2023-02-28T04:30:37;97463.94;;;-4.40;89.86
22862;BME280;11598;50.652;6.172;2023-02-28T04:40:38;97460.56;;;-4.39;88.85
22862;BME280;11598;50.652;6.172;2023-02-28T04:50:38;97466.47;;;-4.40;88.09
22862;BME280;11598;50.652;6.172;2023-02-28T05:00:38;97475.78;;;-4.33;86.84
22862;BME280;11598;50.652;6.172;2023-02-28T05:10:39;97469.03;;;-4.31;86.94
22862;BME280;11598;50.652;6.172;2023-02-28T05:20:39;97478.31;;;-4.36;86.61
22862;BME280;11598;50.652;6.172;2023-02-28T05:30:40;97479.16;;;-4.45;86.74
22862;BME280;11598;50.652;6.172;2023-02-28T05:40:40;97480.81;;;-4.59;86.33
22862;BME280;11598;50.652;6.172;2023-02-28T05:50:41;97479.13;;;-4.67;86.69
22862;BME280;11598;50.652;6.172;2023-02-28T06:00:42;97476.56;;;-4.74;86.37
22862;BME280;11598;50.652;6.172;2023-02-28T06:10:42;97475.72;;;-4.81;86.14
22862;BME280;11598;50.652;6.172;2023-02-28T06:20:43;97477.38;;;-4.94;86.44
22862;BME280;11598;50.652;6.172;2023-02-28T06:30:43;97493.38;;;-5.02;86.50
22862;BME280;11598;50.652;6.172;2023-02-28T06:40:44;97498.44;;;-5.04;87.02
22862;BME280;11598;50.652;6.172;2023-02-28T06:51:00;97503.53;;;-4.99;86.77
22862;BME280;11598;50.652;6.172;2023-02-28T07:01:02;97515.44;;;-4.71;86.68
22862;BME280;11598;50.652;6.172;2023-02-28T07:11:03;97515.56;;;-3.71;84.68
22862;BME280;11598;50.652;6.172;2023-02-28T07:21:06;97525.66;;;-3.35;82.05
22862;BME280;11598;50.652;6.172;2023-02-28T07:31:08;97520.25;;;-2.52;77.59
22862;BME280;11598;50.652;6.172;2023-02-28T07:41:10;97523.66;;;-1.41;71.29
22862;BME280;11598;50.652;6.172;2023-02-28T07:51:10;97521.09;;;-2.57;72.97
22862;BME280;11598;50.652;6.172;2023-02-28T08:01:11;97532.31;;;-2.96;74.46
22862;BME280;11598;50.652;6.172;2023-02-28T08:11:12;97536.59;;;-3.07;74.45
22862;BME280;11598;50.652;6.172;2023-02-28T08:21:12;97538.28;;;-3.09;73.74
22862;BME280;11598;50.652;6.172;2023-02-28T08:31:15;97545.06;;;-3.05;72.96
22862;BME280;11598;50.652;6.172;2023-02-28T08:41:16;97535.69;;;-2.94;73.14
22862;BME280;11598;50.652;6.172;2023-02-28T08:51:17;97544.94;;;-2.74;71.05
22862;BME280;11598;50.652;6.172;2023-02-28T09:01:27;97540.69;;;-2.69;69.08
22862;BME280;11598;50.652;6.172;2023-02-28T09:11:28;97545.59;;;-2.39;67.84
22862;BME280;11598;50.652;6.172;2023-02-28T09:21:29;97544.72;;;-2.30;66.74
22862;BME280;11598;50.652;6.172;2023-02-28T09:31:29;97544.72;;;-2.31;63.60
22862;BME280;11598;50.652;6.172;2023-02-28T09:41:37;97543.81;;;-2.24;64.49
22862;BME280;11598;50.652;6.172;2023-02-28T09:51:47;97542.03;;;-2.07;64.66
22862;BME280;11598;50.652;6.172;2023-02-28T10:02:04;97546.25;;;-2.06;64.86
22862;BME280;11598;50.652;6.172;2023-02-28T10:12:09;97533.41;;;-1.87;63.73
22862;BME280;11598;50.652;6.172;2023-02-28T10:22:21;97535.81;;;-1.72;62.63
22862;BME280;11598;50.652;6.172;2023-02-28T10:32:32;97535.56;;;-1.46;62.18
22862;BME280;11598;50.652;6.172;2023-02-28T10:42:33;97526.94;;;-1.33;59.76
22862;BME280;11598;50.652;6.172;2023-02-28T10:52:39;97532.66;;;-1.09;58.83
22862;BME280;11598;50.652;6.172;2023-02-28T11:02:40;97534.91;;;-0.81;58.15
22862;BME280;11598;50.652;6.172;2023-02-28T11:12:45;97522.00;;;-0.71;56.73
22862;BME280;11598;50.652;6.172;2023-02-28T11:22:46;97509.16;;;-0.66;56.29
22862;BME280;11598;50.652;6.172;2023-02-28T11:32:49;97507.72;;;-0.84;56.70
22862;BME280;11598;50.652;6.172;2023-02-28T11:43:01;97511.00;;;-0.76;57.10
22862;BME280;11598;50.652;6.172;2023-02-28T12:14:01;97511.88;;;-0.77;56.02
22862;BME280;11598;50.652;6.172;2023-02-28T12:34:32;97487.75;;;-0.54;56.09
22862;BME280;11598;50.652;6.172;2023-02-28T12:44:46;97471.44;;;0.12;54.85
22862;BME280;11598;50.652;6.172;2023-02-28T12:54:59;97468.91;;;0.12;54.68
22862;BME280;11598;50.652;6.172;2023-02-28T13:15:39;97466.91;;;0.28;53.52
22862;BME280;11598;50.652;6.172;2023-02-28T13:25:50;97451.31;;;-0.08;54.20
22862;BME280;11598;50.652;6.172;2023-02-28T13:36:08;97437.44;;;0.08;53.21
22862;BME280;11598;50.652;6.172;2023-02-28T13:46:12;97446.81;;;0.06;52.61
22862;BME280;11598;50.652;6.172;2023-02-28T13:56:33;97442.47;;;0.13;52.28
22862;BME280;11598;50.652;6.172;2023-02-28T14:06:36;97436.34;;;0.22;52.86
22862;BME280;11598;50.652;6.172;2023-02-28T14:16:44;97421.47;;;0.42;53.00
22862;BME280;11598;50.652;6.172;2023-02-28T14:37:04;97425.00;;;0.36;52.91
22862;BME280;11598;50.652;6.172;2023-02-28T14:47:14;97411.06;;;0.54;52.83
22862;BME280;11598;50.652;6.172;2023-02-28T14:57:30;97416.38;;;0.42;53.11
22862;BME280;11598;50.652;6.172;2023-02-28T15:07:31;97413.88;;;0.39;52.07
22862;BME280;11598;50.652;6.172;2023-02-28T15:17:33;97408.84;;;0.36;52.37
22862;BME280;11598;50.652;6.172;2023-02-28T15:27:42;97421.66;;;0.33;52.57
22862;BME280;11598;50.652;6.172;2023-02-28T15:37:48;97416.63;;;0.28;52.90
22862;BME280;11598;50.652;6.172;2023-02-28T15:47:49;97412.41;;;0.26;53.02
22862;BME280;11598;50.652;6.172;2023-02-28T15:57:54;97410.75;;;0.25;53.16
22862;BME280;11598;50.652;6.172;2023-02-28T16:07:56;97421.06;;;0.18;53.47
22862;BME280;11598;50.652;6.172;2023-02-28T16:17:57;97425.41;;;0.15;54.08
22862;BME280;11598;50.652;6.172;2023-02-28T16:27:58;97434.06;;;0.06;54.20
22862;BME280;11598;50.652;6.172;2023-02-28T16:38:00;97432.53;;;-0.06;54.54
22862;BME280;11598;50.652;6.172;2023-02-28T16:48:01;97448.84;;;-0.13;54.96
22862;BME280;11598;50.652;6.172;2023-02-28T16:58:02;97455.00;;;-0.25;55.47
22862;BME280;11598;50.652;6.172;2023-02-28T17:08:03;97453.38;;;-0.30;55.55
22862;BME280;11598;50.652;6.172;2023-02-28T17:18:04;97469.75;;;-0.45;56.24
22862;BME280;11598;50.652;6.172;2023-02-28T17:28:05;97471.72;;;-0.62;56.96
22862;BME280;11598;50.652;6.172;2023-02-28T17:48:09;97503.56;;;-0.94;57.79
22862;BME280;11598;50.652;6.172;2023-02-28T17:58:11;97508.84;;;-1.08;58.11
22862;BME280;11598;50.652;6.172;2023-02-28T18:08:13;97510.63;;;-1.18;58.50
22862;BME280;11598;50.652;6.172;2023-02-28T18:18:14;97509.91;;;-1.28;59.05
22862;BME280;11598;50.652;6.172;2023-02-28T18:28:15;97505.75;;;-1.36;59.28
22862;BME280;11598;50.652;6.172;2023-02-28T18:38:17;97503.31;;;-1.45;59.61
22862;BME280;11598;50.652;6.172;2023-02-28T18:48:21;97494.00;;;-1.50;59.71
22862;BME280;11598;50.652;6.172;2023-02-28T18:58:22;97502.50;;;-1.52;59.89
22862;BME280;11598;50.652;6.172;2023-02-28T19:08:24;97513.59;;;-1.56;60.30
22862;BME280;11598;50.652;6.172;2023-02-28T19:18:24;97519.47;;;-1.50;60.13
22862;BME280;11598;50.652;6.172;2023-02-28T19:28:28;97524.56;;;-1.50;60.24
22862;BME280;11598;50.652;6.172;2023-02-28T19:38:32;97520.41;;;-1.58;61.58
22862;BME280;11598;50.652;6.172;2023-02-28T19:48:32;97515.38;;;-1.64;63.57
22862;BME280;11598;50.652;6.172;2023-02-28T19:58:33;97519.69;;;-1.73;64.92
22862;BME280;11598;50.652;6.172;2023-02-28T20:08:34;97512.97;;;-1.83;65.94
22862;BME280;11598;50.652;6.172;2023-02-28T20:18:35;97514.75;;;-1.96;66.97
22862;BME280;11598;50.652;6.172;2023-02-28T20:28:38;97520.81;;;-2.09;68.41
22862;BME280;11598;50.652;6.172;2023-02-28T20:38:38;97515.81;;;-2.23;69.22
22862;BME280;11598;50.652;6.172;2023-02-28T20:48:40;97518.47;;;-2.35;70.24
22862;BME280;11598;50.652;6.172;2023-02-28T20:58:42;97520.19;;;-2.42;70.84
22862;BME280;11598;50.652;6.172;2023-02-28T21:08:43;97513.41;;;-2.44;72.06
22862;BME280;11598;50.652;6.172;2023-02-28T21:18:44;97506.66;;;-2.48;73.23
22862;BME280;11598;50.652;6.172;2023-02-28T21:28:53;97504.97;;;-2.54;73.39
22862;BME280;11598;50.652;6.172;2023-02-28T21:38:55;97504.16;;;-2.59;73.37
22862;BME280;11598;50.652;6.172;2023-02-28T21:48:56;97495.69;;;-2.60;73.18
22862;BME280;11598;50.652;6.172;2023-02-28T21:58:57;97492.31;;;-2.62;73.28
22862;BME280;11598;50.652;6.172;2023-02-28T22:09:04;97491.47;;;-2.62;72.93
22862;BME280;11598;50.652;6.172;2023-02-28T22:19:05;97497.38;;;-2.60;72.43
22862;BME280;11598;50.652;6.172;2023-02-28T22:29:07;97506.66;;;-2.47;71.37
22862;BME280;11598;50.652;6.172;2023-02-28T22:39:08;97499.03;;;-2.48;70.74
22862;BME280;11598;50.652;6.172;2023-02-28T22:49:09;97522.84;;;-2.59;70.83
22862;BME280;11598;50.652;6.172;2023-02-28T22:59:11;97529.63;;;-2.64;70.71
22862;BME280;11598;50.652;6.172;2023-02-28T23:09:14;97528.84;;;-2.77;71.14
22862;BME280;11598;50.652;6.172;2023-02-28T23:19:26;97525.47;;;-2.85;72.39
22862;BME280;11598;50.652;6.172;2023-02-28T23:29:27;97525.50;;;-2.91;72.87
22862;BME280;11598;50.652;6.172;2023-02-28T23:39:29;97530.63;;;-2.97;73.45
22862;BME280;11598;50.652;6.172;2023-02-28T23:49:30;97511.16;;;-3.07;73.95
22862;BME280;11598;50.652;6.172;2023-02-28T23:59:30;97512.91;;;-3.17;74.55
